createdAt,value
2022-08-01T00:01:17.658Z,64.46
2022-08-01T00:03:45.532Z,66.32
2022-08-01T00:06:14.843Z,66.07
2022-08-01T00:08:42.680Z,67.28
2022-08-01T00:11:11.087Z,66.84
2022-08-01T00:13:38.960Z,66.21
2022-08-01T00:16:06.861Z,67.12
2022-08-01T00:18:35.509Z,69.24
2022-08-01T00:21:03.607Z,70.26
2022-08-01T00:23:33.221Z,69.54
2022-08-01T00:26:01.215Z,70.06
2022-08-01T00:28:29.366Z,70.93
2022-08-01T00:30:57.283Z,71.62
2022-08-01T00:33:25.376Z,72.01
2022-08-01T00:35:53.294Z,71.21
2022-08-01T00:38:21.342Z,74.79
2022-08-01T00:40:52.134Z,75.60
2022-08-01T00:43:20.103Z,75.50
2022-08-01T00:45:48.121Z,76.46
2022-08-01T00:48:15.959Z,76.36
2022-08-01T00:50:43.929Z,73.66
2022-08-01T00:53:18.927Z,73.72
2022-08-01T00:55:47.242Z,72.94
2022-08-01T00:58:16.718Z,72.79
2022-08-01T01:00:52.226Z,72.67
2022-08-01T01:03:26.329Z,72.30
2022-08-01T01:06:23.402Z,72.94
2022-08-01T01:09:09.071Z,73.57
2022-08-01T01:11:47.212Z,73.09
2022-08-01T01:14:32.684Z,72.58
2022-08-01T01:17:03.634Z,72.28
2022-08-01T01:19:40.613Z,73.82
2022-08-01T01:22:26.235Z,75.28
2022-08-01T01:25:21.007Z,73.32
2022-08-01T01:28:03.964Z,71.60
2022-08-01T01:30:35.625Z,71.44
2022-08-01T01:33:10.897Z,70.64
2022-08-01T01:35:46.209Z,71.30
2022-08-01T01:38:20.716Z,71.15
2022-08-01T01:40:50.795Z,70.62
2022-08-01T01:43:20.756Z,70.47
2022-08-01T01:45:52.893Z,70.13
2022-08-01T01:48:26.086Z,70.01
2022-08-01T01:50:55.533Z,70.12
2022-08-01T01:53:25.391Z,70.30
2022-08-01T01:55:56.232Z,71.40
2022-08-01T01:58:26.311Z,70.07
2022-08-01T02:01:02.702Z,70.68
2022-08-01T02:03:33.520Z,70.65
2022-08-01T02:06:03.912Z,71.17
2022-08-01T02:08:34.545Z,70.58
2022-08-01T02:11:20.252Z,71.15
2022-08-01T02:13:55.245Z,71.53
2022-08-01T02:16:29.265Z,72.02
2022-08-01T02:18:57.639Z,71.82
2022-08-01T02:21:31.801Z,71.21
2022-08-01T02:24:15.158Z,72.11
2022-08-01T02:26:49.597Z,71.08
2022-08-01T02:29:24.571Z,71.26
2022-08-01T02:31:56.682Z,71.97
2022-08-01T02:34:32.946Z,73.01
2022-08-01T02:37:02.718Z,72.32
2022-08-01T02:39:34.151Z,74.44
2022-08-01T02:42:09.778Z,73.08
2022-08-01T02:44:43.837Z,72.75
2022-08-01T02:47:13.784Z,73.95
2022-08-01T02:49:53.703Z,73.36
2022-08-01T02:52:26.695Z,72.86
2022-08-01T02:54:58.921Z,73.18
2022-08-01T02:57:32.806Z,72.77
2022-08-01T03:00:19.350Z,72.64
2022-08-01T03:02:56.273Z,72.81
2022-08-01T03:05:27.804Z,72.67
2022-08-01T03:08:02.511Z,72.81
2022-08-01T03:10:35.327Z,72.51
2022-08-01T03:13:06.817Z,72.64
2022-08-01T03:15:39.380Z,72.68
2022-08-01T03:18:13.433Z,73.00
2022-08-01T03:20:45.592Z,73.05
2022-08-01T03:23:16.143Z,73.98
2022-08-01T03:25:47.131Z,73.72
2022-08-01T03:28:18.831Z,73.25
2022-08-01T03:30:49.404Z,73.37
2022-08-01T03:33:19.206Z,74.49
2022-08-01T03:35:54.562Z,74.88
2022-08-01T03:38:27.474Z,74.20
2022-08-01T03:41:04.805Z,74.04
2022-08-01T03:43:37.871Z,73.88
2022-08-01T03:46:11.290Z,74.11
2022-08-01T03:48:49.663Z,74.82
2022-08-01T03:51:20.295Z,74.57
2022-08-01T03:53:51.720Z,74.56
2022-08-01T03:56:22.725Z,75.55
2022-08-01T03:58:52.406Z,75.18
2022-08-01T04:01:21.147Z,76.34
2022-08-01T04:03:50.807Z,75.03
2022-08-01T04:06:18.863Z,75.64
2022-08-01T04:08:56.301Z,74.37
2022-08-01T04:11:26.796Z,74.54
2022-08-01T04:13:56.161Z,75.18
2022-08-01T04:16:25.795Z,74.59
2022-08-01T04:18:55.087Z,74.60
2022-08-01T04:21:28.635Z,76.73
2022-08-01T04:24:01.957Z,75.85
2022-08-01T04:26:33.074Z,77.81
2022-08-01T04:29:05.852Z,77.65
2022-08-01T04:31:35.130Z,77.87
2022-08-01T04:34:07.631Z,77.79
2022-08-01T04:36:39.955Z,79.55
2022-08-01T04:39:08.991Z,79.57
2022-08-01T04:41:38.725Z,78.26
2022-08-01T04:44:07.796Z,76.98
2022-08-01T04:46:38.726Z,76.54
2022-08-01T04:49:10.180Z,76.44
2022-08-01T04:51:38.042Z,77.19
2022-08-01T04:54:08.328Z,77.15
2022-08-01T04:56:36.144Z,79.15
2022-08-01T04:59:21.689Z,84.81
2022-08-01T05:01:52.701Z,81.87
2022-08-01T05:04:21.951Z,83.24
2022-08-01T05:06:49.924Z,81.29
2022-08-01T05:09:17.884Z,80.89
2022-08-01T05:11:45.767Z,80.57
2022-08-01T05:14:13.617Z,81.06
2022-08-01T05:16:42.749Z,81.94
2022-08-01T05:19:11.177Z,83.32
2022-08-01T05:21:40.371Z,82.85
2022-08-01T05:24:08.651Z,83.69
2022-08-01T05:26:36.733Z,83.19
2022-08-01T05:29:09.207Z,82.98
2022-08-01T05:31:42.094Z,85.78
2022-08-01T05:34:15.590Z,86.13
2022-08-01T05:36:46.433Z,86.82
2022-08-01T05:39:34.034Z,84.36
2022-08-01T05:42:07.594Z,84.33
2022-08-01T05:44:39.165Z,85.24
2022-08-01T05:47:11.974Z,84.01
2022-08-01T05:49:39.823Z,83.85
2022-08-01T05:52:09.513Z,84.94
2022-08-01T05:54:37.532Z,85.75
2022-08-01T05:57:05.793Z,87.38
2022-08-01T05:59:33.920Z,88.58
2022-08-01T06:02:02.120Z,86.69
2022-08-01T06:04:30.238Z,88.77
2022-08-01T06:06:58.020Z,86.99
2022-08-01T06:09:27.263Z,86.09
2022-08-01T06:11:55.108Z,84.31
2022-08-01T06:14:22.906Z,84.35
2022-08-01T06:16:50.728Z,84.77
2022-08-01T06:19:18.561Z,86.81
2022-08-01T06:21:46.399Z,86.13
2022-08-01T06:24:14.553Z,86.93
2022-08-01T06:26:43.697Z,86.10
2022-08-01T06:29:11.493Z,86.46
2022-08-01T06:31:40.177Z,85.40
2022-08-01T06:34:07.972Z,81.74
2022-08-01T06:36:35.784Z,84.62
2022-08-01T06:39:03.755Z,84.88
2022-08-01T06:41:31.580Z,85.82
2022-08-01T06:44:03.280Z,83.94
2022-08-01T06:46:32.549Z,81.36
2022-08-01T06:49:02.904Z,84.48
2022-08-01T06:51:30.790Z,83.90
2022-08-01T06:53:58.664Z,82.83
2022-08-01T06:56:26.465Z,84.92
2022-08-01T06:58:57.237Z,82.84
2022-08-01T07:01:26.393Z,81.78
2022-08-01T07:03:55.149Z,83.58
2022-08-01T07:06:24.867Z,82.97
2022-08-01T07:08:53.303Z,82.65
2022-08-01T07:11:21.788Z,84.15
2022-08-01T07:13:49.702Z,82.29
2022-08-01T07:16:19.087Z,86.52
2022-08-01T07:18:48.279Z,86.84
2022-08-01T07:21:38.518Z,85.70
2022-08-01T07:24:09.258Z,83.59
2022-08-01T07:26:52.406Z,84.51
2022-08-01T07:29:24.152Z,88.25
2022-08-01T07:31:52.281Z,85.97
2022-08-01T07:34:21.669Z,85.49
2022-08-01T07:36:49.779Z,79.79
2022-08-01T07:39:17.597Z,75.99
2022-08-01T07:42:06.177Z,75.77
2022-08-01T07:44:33.306Z,74.52
2022-08-01T07:47:01.135Z,75.66
2022-08-01T07:49:30.524Z,74.31
2022-08-01T07:52:02.691Z,75.06
2022-08-01T07:54:33.946Z,78.54
2022-08-01T07:57:02.442Z,79.43
2022-08-01T07:59:30.322Z,81.57
2022-08-01T08:01:58.344Z,81.59
2022-08-01T08:04:26.297Z,82.15
2022-08-01T08:06:55.511Z,83.10
2022-08-01T08:09:23.870Z,84.55
2022-08-01T08:11:52.213Z,81.68
2022-08-01T08:14:20.567Z,80.21
2022-08-01T08:16:48.808Z,78.27
2022-08-01T08:19:16.727Z,77.40
2022-08-01T08:21:45.264Z,76.87
2022-08-01T08:24:26.458Z,75.27
2022-08-01T08:26:58.697Z,76.85
2022-08-01T08:29:28.554Z,77.65
2022-08-01T08:31:57.021Z,77.86
2022-08-01T08:34:26.323Z,75.55
2022-08-01T08:36:55.572Z,75.17
2022-08-01T08:39:25.438Z,75.06
2022-08-01T08:41:53.264Z,74.20
2022-08-01T08:44:22.052Z,74.56
2022-08-01T08:46:52.892Z,75.06
2022-08-01T08:49:25.379Z,73.28
2022-08-01T08:51:55.581Z,77.03
2022-08-01T08:54:31.137Z,74.81
2022-08-01T08:57:01.979Z,74.10
2022-08-01T08:59:30.912Z,72.34
2022-08-01T09:02:00.174Z,73.01
2022-08-01T09:04:28.496Z,67.92
2022-08-01T09:06:56.674Z,69.40
2022-08-01T09:09:25.929Z,69.90
2022-08-01T09:11:57.773Z,72.43
2022-08-01T09:14:30.963Z,73.82
2022-08-01T09:17:07.533Z,73.56
2022-08-01T09:19:41.892Z,71.89
2022-08-01T09:22:12.966Z,73.09
2022-08-01T09:24:43.384Z,73.29
2022-08-01T09:27:24.655Z,72.92
2022-08-01T09:30:01.075Z,73.72
2022-08-01T09:32:38.501Z,74.71
2022-08-01T09:35:30.262Z,73.90
2022-08-01T09:38:16.466Z,73.65
2022-08-01T09:40:55.561Z,75.09
2022-08-01T09:43:27.123Z,74.17
2022-08-01T09:45:57.947Z,73.81
2022-08-01T09:48:29.787Z,72.77
2022-08-01T09:51:04.723Z,75.96
2022-08-01T09:53:51.840Z,74.52
2022-08-01T09:56:24.159Z,73.70
2022-08-01T09:59:01.129Z,71.77
2022-08-01T10:01:37.484Z,72.93
2022-08-01T10:04:13.512Z,73.01
2022-08-01T10:06:46.192Z,73.96
2022-08-01T10:09:16.200Z,73.30
2022-08-01T10:11:45.923Z,73.58
2022-08-01T10:14:18.291Z,72.17
2022-08-01T10:16:53.723Z,72.19
2022-08-01T10:19:34.342Z,74.54
2022-08-01T10:22:06.559Z,73.94
2022-08-01T10:24:40.927Z,73.55
2022-08-01T10:27:12.981Z,72.66
2022-08-01T10:30:05.552Z,75.06
2022-08-01T10:32:39.577Z,74.37
2022-08-01T10:35:15.177Z,74.87
2022-08-01T10:37:52.205Z,75.18
2022-08-01T10:40:30.346Z,72.14
2022-08-01T10:43:01.474Z,72.43
2022-08-01T10:45:30.795Z,73.05
2022-08-01T10:48:07.957Z,73.62
2022-08-01T10:50:48.397Z,72.78
2022-08-01T10:53:23.885Z,71.97
2022-08-01T10:56:06.597Z,73.63
2022-08-01T10:58:42.199Z,74.14
2022-08-01T11:01:26.221Z,73.31
2022-08-01T11:04:11.430Z,73.78
2022-08-01T11:06:55.349Z,72.51
2022-08-01T11:09:37.407Z,72.42
2022-08-01T11:12:13.659Z,70.82
2022-08-01T11:15:29.162Z,72.83
2022-08-01T11:18:01.680Z,72.33
2022-08-01T11:20:33.775Z,75.21
2022-08-01T11:23:36.198Z,79.48
2022-08-01T11:26:14.160Z,82.57
2022-08-01T11:29:05.039Z,83.59
2022-08-01T11:31:38.336Z,83.84
2022-08-01T11:34:06.816Z,84.13
2022-08-01T11:36:58.220Z,84.45
2022-08-01T11:39:22.815Z,79.35
2022-08-01T11:41:51.197Z,79.71
2022-08-01T11:44:26.374Z,78.01
2022-08-01T11:47:09.853Z,77.01
2022-08-01T11:49:56.095Z,76.89
2022-08-01T11:52:29.519Z,75.87
2022-08-01T11:54:59.945Z,72.51
2022-08-01T11:57:34.180Z,71.40
2022-08-01T12:00:16.983Z,68.89
2022-08-01T12:02:49.146Z,68.05
2022-08-01T12:05:24.523Z,66.29
2022-08-01T12:07:55.974Z,65.73
2022-08-01T12:10:26.699Z,65.79
2022-08-01T12:12:57.765Z,65.84
2022-08-01T12:15:30.931Z,63.75
2022-08-01T12:18:02.563Z,64.19
2022-08-01T12:20:33.765Z,64.73
2022-08-01T12:23:09.277Z,63.60
2022-08-01T12:25:37.857Z,64.58
2022-08-01T12:28:08.359Z,64.79
2022-08-01T12:30:37.940Z,65.56
2022-08-01T12:33:09.681Z,64.20
2022-08-01T12:35:40.303Z,64.69
2022-08-01T12:38:17.482Z,62.95
2022-08-01T12:40:52.945Z,63.33
2022-08-01T12:43:28.157Z,64.00
2022-08-01T12:46:01.159Z,64.43
2022-08-01T12:48:33.416Z,64.27
2022-08-01T12:51:05.026Z,65.73
2022-08-01T12:53:39.738Z,64.15
2022-08-01T12:56:10.539Z,66.15
2022-08-01T12:58:38.630Z,65.05
2022-08-01T13:01:09.070Z,63.67
2022-08-01T13:03:38.674Z,64.23
2022-08-01T13:06:15.471Z,66.96
2022-08-01T13:08:44.009Z,68.30
2022-08-01T13:11:16.401Z,66.71
2022-08-01T13:13:48.236Z,65.18
2022-08-01T13:16:27.844Z,65.79
2022-08-01T13:19:03.790Z,66.17
2022-08-01T13:21:34.669Z,65.20
2022-08-01T13:24:27.800Z,64.91
2022-08-01T13:26:59.827Z,64.32
2022-08-01T13:29:38.934Z,64.01
2022-08-01T13:32:28.303Z,66.63
2022-08-01T13:35:05.949Z,65.39
2022-08-01T13:37:34.332Z,64.86
2022-08-01T13:40:02.494Z,63.54
2022-08-01T13:42:31.085Z,65.49
2022-08-01T13:44:59.786Z,67.95
2022-08-01T13:47:32.088Z,68.57
2022-08-01T13:50:01.601Z,68.67
2022-08-01T13:52:31.860Z,66.26
2022-08-01T13:55:00.312Z,66.42
2022-08-01T13:57:36.297Z,63.62
2022-08-01T14:00:07.590Z,62.81
2022-08-01T14:02:35.855Z,63.23
2022-08-01T14:05:03.938Z,61.92
2022-08-01T14:07:33.099Z,61.16
2022-08-01T14:10:04.932Z,60.45
2022-08-01T14:12:46.946Z,57.91
2022-08-01T14:15:16.770Z,57.77
2022-08-01T14:18:04.045Z,56.26
2022-08-01T14:20:34.375Z,55.98
2022-08-01T14:23:03.818Z,57.67
2022-08-01T14:26:00.361Z,58.39
2022-08-01T14:28:25.142Z,56.38
2022-08-01T14:30:53.159Z,57.11
2022-08-01T14:33:20.931Z,57.05
2022-08-01T14:36:01.920Z,57.94
2022-08-01T14:38:36.077Z,57.02
2022-08-01T14:41:04.795Z,58.37
2022-08-01T14:43:34.086Z,58.61
2022-08-01T14:46:04.448Z,59.64
2022-08-01T14:48:33.142Z,59.41
2022-08-01T14:51:03.856Z,60.98
2022-08-01T14:53:33.613Z,62.03
2022-08-01T14:56:05.770Z,62.00
2022-08-01T14:58:34.104Z,63.22
2022-08-01T15:01:02.294Z,65.24
2022-08-01T15:03:30.515Z,68.92
2022-08-01T15:05:58.302Z,67.65
2022-08-01T15:08:26.163Z,67.11
2022-08-01T15:10:54.365Z,67.88
2022-08-01T15:13:23.509Z,66.80
2022-08-01T15:15:51.331Z,64.44
2022-08-01T15:18:19.119Z,64.24
2022-08-01T15:20:47.188Z,63.04
2022-08-01T15:23:15.335Z,62.50
2022-08-01T15:25:43.207Z,62.54
2022-08-01T15:28:12.115Z,62.21
2022-08-01T15:30:41.719Z,63.63
2022-08-01T15:33:09.712Z,65.46
2022-08-01T15:35:37.618Z,64.50
2022-08-01T15:38:05.452Z,64.25
2022-08-01T15:40:35.564Z,62.97
2022-08-01T15:43:03.721Z,62.85
2022-08-01T15:45:46.810Z,62.61
2022-08-01T15:48:16.916Z,62.92
2022-08-01T15:50:45.020Z,63.24
2022-08-01T15:53:13.145Z,63.45
2022-08-01T15:55:41.095Z,64.13
2022-08-01T15:58:11.499Z,62.74
2022-08-01T16:00:40.477Z,62.74
2022-08-01T16:03:10.212Z,62.83
2022-08-01T16:05:43.377Z,63.67
2022-08-01T16:08:12.803Z,63.67
2022-08-01T16:10:40.802Z,62.40
2022-08-01T16:13:08.633Z,63.06
2022-08-01T16:15:38.176Z,63.09
2022-08-01T16:18:07.858Z,60.94
2022-08-01T16:20:39.070Z,60.36
2022-08-01T16:23:12.156Z,61.50
2022-08-01T16:25:40.276Z,61.52
2022-08-01T16:28:09.795Z,61.62
2022-08-01T16:30:37.683Z,61.59
2022-08-01T16:33:45.203Z,61.76
2022-08-01T16:36:06.660Z,62.02
2022-08-01T16:38:36.064Z,61.44
2022-08-01T16:41:04.077Z,60.56
2022-08-01T16:43:54.442Z,60.12
2022-08-01T16:46:24.963Z,59.88
2022-08-01T16:48:53.264Z,61.74
2022-08-01T16:51:21.306Z,61.05
2022-08-01T16:53:50.668Z,61.03
2022-08-01T16:56:18.570Z,60.62
2022-08-01T16:58:46.562Z,60.88
2022-08-01T17:01:59.987Z,60.40
2022-08-01T17:04:02.786Z,60.40
2022-08-01T17:06:30.823Z,59.25
2022-08-01T17:09:00.044Z,60.62
2022-08-01T17:11:28.251Z,61.71
2022-08-01T17:13:56.055Z,60.97
2022-08-01T17:16:24.211Z,62.15
2022-08-01T17:18:52.046Z,59.92
2022-08-01T17:21:19.954Z,61.88
2022-08-01T17:23:47.869Z,61.38
2022-08-01T17:26:16.973Z,60.96
2022-08-01T17:28:44.801Z,60.63
2022-08-01T17:31:12.698Z,61.73
2022-08-01T17:33:45.638Z,61.41
2022-08-01T17:36:14.956Z,61.72
2022-08-01T17:38:43.016Z,60.96
2022-08-01T17:41:11.388Z,61.56
2022-08-01T17:43:40.679Z,59.75
2022-08-01T17:46:08.568Z,61.74
2022-08-01T17:48:36.661Z,60.15
2022-08-01T17:51:04.731Z,60.51
2022-08-01T17:53:32.703Z,61.83
2022-08-01T17:56:01.530Z,61.83
2022-08-01T17:58:51.490Z,60.46
2022-08-01T18:01:20.729Z,60.54
2022-08-01T18:03:49.509Z,59.88
2022-08-01T18:06:19.930Z,59.59
2022-08-01T18:08:55.307Z,60.14
2022-08-01T18:11:27.094Z,62.34
2022-08-01T18:13:56.335Z,61.28
2022-08-01T18:16:25.552Z,61.18
2022-08-01T18:18:53.473Z,61.02
2022-08-01T18:21:21.295Z,62.17
2022-08-01T18:23:51.610Z,61.58
2022-08-01T18:26:20.680Z,61.74
2022-08-01T18:28:48.630Z,60.78
2022-08-01T18:31:20.158Z,60.18
2022-08-01T18:33:49.694Z,59.64
2022-08-01T18:36:32.975Z,60.58
2022-08-01T18:39:06.292Z,60.90
2022-08-01T18:41:39.237Z,60.34
2022-08-01T18:44:10.214Z,60.27
2022-08-01T18:46:39.881Z,60.29
2022-08-01T18:49:12.187Z,59.32
2022-08-01T18:51:44.572Z,59.77
2022-08-01T18:54:13.966Z,59.83
2022-08-01T18:56:43.391Z,60.74
2022-08-01T18:59:11.942Z,60.66
2022-08-01T19:01:40.144Z,60.39
2022-08-01T19:04:11.417Z,61.67
2022-08-01T19:06:40.258Z,61.15
2022-08-01T19:09:09.201Z,61.72
2022-08-01T19:11:37.591Z,62.25
2022-08-01T19:14:05.435Z,62.82
2022-08-01T19:16:33.876Z,62.42
2022-08-01T19:19:05.566Z,62.78
2022-08-01T19:21:36.371Z,61.80
2022-08-01T19:24:22.718Z,61.47
2022-08-01T19:26:55.121Z,61.70
2022-08-01T19:29:27.550Z,60.79
2022-08-01T19:32:10.394Z,60.43
2022-08-01T19:34:50.124Z,61.11
2022-08-01T19:37:21.995Z,60.40
2022-08-01T19:39:53.282Z,59.38
2022-08-01T19:42:24.240Z,60.76
2022-08-01T19:44:53.289Z,60.40
2022-08-01T19:47:21.677Z,60.11
2022-08-01T19:49:49.605Z,60.93
2022-08-01T19:52:26.481Z,59.13
2022-08-01T19:54:57.556Z,59.98
2022-08-01T19:57:28.541Z,59.33
2022-08-01T20:00:24.023Z,59.71
2022-08-01T20:02:58.040Z,58.57
2022-08-01T20:05:26.760Z,59.54
2022-08-01T20:07:57.566Z,59.59
2022-08-01T20:10:25.590Z,59.49
2022-08-01T20:12:54.949Z,59.78
2022-08-01T20:15:23.622Z,61.54
2022-08-01T20:17:51.437Z,62.59
2022-08-01T20:20:19.288Z,61.93
2022-08-01T20:22:52.067Z,60.84
2022-08-01T20:25:23.822Z,62.22
2022-08-01T20:27:51.945Z,61.41
2022-08-01T20:30:20.016Z,62.83
2022-08-01T20:32:49.372Z,61.75
2022-08-01T20:35:27.092Z,61.65
2022-08-01T20:38:08.147Z,61.95
2022-08-01T20:40:45.566Z,61.86
2022-08-01T20:43:14.812Z,62.76
2022-08-01T20:45:43.519Z,62.43
2022-08-01T20:48:12.828Z,61.59
2022-08-01T20:51:00.127Z,61.42
2022-08-01T20:53:27.923Z,61.05
2022-08-01T20:56:09.623Z,63.59
2022-08-01T20:58:58.631Z,66.53
2022-08-01T21:01:30.908Z,68.25
2022-08-01T21:04:34.708Z,69.25
2022-08-01T21:07:14.253Z,69.58
2022-08-01T21:09:44.257Z,69.29
2022-08-01T21:12:25.815Z,69.84
2022-08-01T21:15:05.003Z,66.42
2022-08-01T21:17:45.382Z,64.21
2022-08-01T21:20:15.716Z,64.41
2022-08-01T21:23:05.626Z,66.76
2022-08-01T21:25:36.529Z,67.19
2022-08-01T21:28:08.966Z,68.18
2022-08-01T21:30:38.125Z,68.59
2022-08-01T21:33:16.002Z,68.69
2022-08-01T21:35:46.800Z,67.15
2022-08-01T21:38:19.754Z,67.43
2022-08-01T21:40:50.465Z,66.96
2022-08-01T21:43:20.628Z,67.49
2022-08-01T21:45:57.869Z,68.33
2022-08-01T21:48:30.838Z,69.42
2022-08-01T21:51:07.804Z,68.80
2022-08-01T21:53:50.013Z,69.45
2022-08-01T21:56:30.598Z,68.09
2022-08-01T21:59:16.270Z,67.84
2022-08-01T22:01:53.236Z,67.71
2022-08-01T22:04:33.174Z,68.71
2022-08-01T22:07:10.284Z,68.46
2022-08-01T22:09:40.455Z,68.37
2022-08-01T22:12:11.593Z,67.03
2022-08-01T22:14:45.788Z,67.71
2022-08-01T22:17:22.565Z,65.55
2022-08-01T22:19:53.964Z,67.42
2022-08-01T22:22:45.129Z,68.51
2022-08-01T22:25:13.422Z,70.89
2022-08-01T22:28:07.868Z,69.97
2022-08-01T22:30:35.395Z,69.72
2022-08-01T22:33:15.220Z,70.99
2022-08-01T22:35:47.088Z,68.82
2022-08-01T22:38:18.262Z,70.56
2022-08-01T22:40:51.335Z,71.66
2022-08-01T22:43:27.295Z,72.37
2022-08-01T22:46:15.636Z,71.65
2022-08-01T22:48:50.462Z,69.48
2022-08-01T22:51:33.000Z,70.15
2022-08-01T22:54:07.136Z,71.34
2022-08-01T22:56:39.980Z,72.89
2022-08-01T22:59:16.259Z,74.72
2022-08-01T23:01:51.022Z,76.32
2022-08-01T23:04:33.935Z,77.34
2022-08-01T23:07:06.936Z,75.55
2022-08-01T23:09:48.069Z,72.47
2022-08-01T23:12:24.304Z,74.34
2022-08-01T23:14:54.687Z,75.86
2022-08-01T23:17:28.889Z,76.03
2022-08-01T23:20:00.287Z,75.44
2022-08-01T23:22:32.153Z,75.23
2022-08-01T23:25:04.482Z,75.04
2022-08-01T23:27:51.689Z,74.49
2022-08-01T23:30:28.744Z,74.87
2022-08-01T23:32:58.816Z,74.13
2022-08-01T23:35:28.168Z,70.36
2022-08-01T23:38:02.480Z,69.68
2022-08-01T23:40:32.229Z,69.76
2022-08-01T23:43:01.666Z,68.53
2022-08-01T23:46:02.220Z,67.97
2022-08-01T23:48:19.477Z,67.99
2022-08-01T23:50:47.572Z,69.51
2022-08-01T23:53:15.406Z,68.71
2022-08-01T23:55:44.402Z,69.17
2022-08-01T23:58:12.485Z,68.13
